createdAt,value
2022-10-05T00:01:27.113Z,9.10
2022-10-05T00:04:01.960Z,9.10
2022-10-05T00:06:30.694Z,9.02
2022-10-05T00:09:00.983Z,9.00
2022-10-05T00:11:29.594Z,9.00
2022-10-05T00:13:59.118Z,8.90
2022-10-05T00:16:29.126Z,8.90
2022-10-05T00:19:00.360Z,9.00
2022-10-05T00:21:29.704Z,9.16
2022-10-05T00:24:00.563Z,9.28
2022-10-05T00:26:33.896Z,9.36
2022-10-05T00:29:31.180Z,9.40
2022-10-05T00:32:05.496Z,9.50
2022-10-05T00:34:41.055Z,9.60
2022-10-05T00:37:19.055Z,9.60
2022-10-05T00:40:04.526Z,9.60
2022-10-05T00:42:52.064Z,9.66
2022-10-05T00:45:33.087Z,9.70
2022-10-05T00:48:14.491Z,9.70
2022-10-05T00:51:09.020Z,9.70
2022-10-05T00:53:43.422Z,9.60
2022-10-05T00:56:24.868Z,9.40
2022-10-05T00:59:02.249Z,9.30
2022-10-05T01:01:36.923Z,9.20
2022-10-05T01:04:16.579Z,9.12
2022-10-05T01:06:59.184Z,9.10
2022-10-05T01:09:38.765Z,9.00
2022-10-05T01:12:14.039Z,9.00
2022-10-05T01:14:50.739Z,9.00
2022-10-05T01:17:25.764Z,9.00
2022-10-05T01:20:25.208Z,9.02
2022-10-05T01:23:07.425Z,9.10
2022-10-05T01:25:45.545Z,9.10
2022-10-05T01:28:19.832Z,9.14
2022-10-05T01:30:54.691Z,9.16
2022-10-05T01:33:28.958Z,9.10
2022-10-05T01:36:05.061Z,9.10
2022-10-05T01:38:49.546Z,9.10
2022-10-05T01:41:29.413Z,9.10
2022-10-05T01:44:02.999Z,9.10
2022-10-05T01:46:38.686Z,9.10
2022-10-05T01:49:23.361Z,9.00
2022-10-05T01:52:02.821Z,9.00
2022-10-05T01:54:43.009Z,8.94
2022-10-05T01:57:18.765Z,8.90
2022-10-05T02:00:01.173Z,8.90
2022-10-05T02:02:35.114Z,8.80
2022-10-05T02:05:08.405Z,8.80
2022-10-05T02:07:43.167Z,8.70
2022-10-05T02:10:20.987Z,8.70
2022-10-05T02:12:54.076Z,8.70
2022-10-05T02:15:29.049Z,8.80
2022-10-05T02:18:04.822Z,8.80
2022-10-05T02:21:03.675Z,8.80
2022-10-05T02:23:36.256Z,8.90
2022-10-05T02:26:06.281Z,8.96
2022-10-05T02:28:39.755Z,8.96
2022-10-05T02:31:11.304Z,8.90
2022-10-05T02:33:40.159Z,8.90
2022-10-05T02:36:17.410Z,8.90
2022-10-05T02:39:01.200Z,8.90
2022-10-05T02:41:41.420Z,8.86
2022-10-05T02:44:19.550Z,8.84
2022-10-05T02:46:57.360Z,8.82
2022-10-05T02:49:37.544Z,8.80
2022-10-05T02:52:12.511Z,8.80
2022-10-05T02:54:53.118Z,8.80
2022-10-05T02:57:28.815Z,8.90
2022-10-05T03:00:05.682Z,8.90
2022-10-05T03:02:40.932Z,8.92
2022-10-05T03:05:23.592Z,9.00
2022-10-05T03:07:58.468Z,8.96
2022-10-05T03:10:34.731Z,9.10
2022-10-05T03:13:09.260Z,9.20
2022-10-05T03:15:48.870Z,9.20
2022-10-05T03:18:30.603Z,9.20
2022-10-05T03:21:11.478Z,9.20
2022-10-05T03:23:51.716Z,9.22
2022-10-05T03:26:33.456Z,9.28
2022-10-05T03:29:09.097Z,9.20
2022-10-05T03:31:44.494Z,9.20
2022-10-05T03:34:20.182Z,9.20
2022-10-05T03:36:55.596Z,9.30
2022-10-05T03:39:33.796Z,9.30
2022-10-05T03:42:10.149Z,9.30
2022-10-05T03:44:47.685Z,9.34
2022-10-05T03:47:24.768Z,9.30
2022-10-05T03:50:16.667Z,9.30
2022-10-05T03:52:50.155Z,9.30
2022-10-05T03:55:26.069Z,9.30
2022-10-05T03:57:59.850Z,9.30
2022-10-05T04:00:31.635Z,9.34
2022-10-05T04:03:07.441Z,9.40
2022-10-05T04:05:43.540Z,9.40
2022-10-05T04:08:21.205Z,9.40
2022-10-05T04:10:52.554Z,9.40
2022-10-05T04:13:31.328Z,9.40
2022-10-05T04:16:04.161Z,9.30
2022-10-05T04:18:36.789Z,9.30
2022-10-05T04:21:10.415Z,9.30
2022-10-05T04:23:50.709Z,9.30
2022-10-05T04:26:25.340Z,9.30
2022-10-05T04:28:58.802Z,9.34
2022-10-05T04:31:47.932Z,9.40
2022-10-05T04:34:38.819Z,9.40
2022-10-05T04:37:14.529Z,9.50
2022-10-05T04:39:51.912Z,9.50
2022-10-05T04:42:28.632Z,9.50
2022-10-05T04:45:13.412Z,9.50
2022-10-05T04:48:10.656Z,9.50
2022-10-05T04:50:54.020Z,9.64
2022-10-05T04:53:31.658Z,9.80
2022-10-05T04:56:09.435Z,9.84
2022-10-05T04:58:53.187Z,9.90
2022-10-05T05:01:39.633Z,9.90
2022-10-05T05:04:25.189Z,9.90
2022-10-05T05:07:03.093Z,9.90
2022-10-05T05:09:57.587Z,9.90
2022-10-05T05:12:41.750Z,9.90
2022-10-05T05:15:40.811Z,9.90
2022-10-05T05:18:48.375Z,9.90
2022-10-05T05:21:30.534Z,9.90
2022-10-05T05:24:06.403Z,9.90
2022-10-05T05:26:49.526Z,9.98
2022-10-05T05:29:28.250Z,10.00
2022-10-05T05:32:06.636Z,10.10
2022-10-05T05:34:47.115Z,10.14
2022-10-05T05:37:23.474Z,10.20
2022-10-05T05:40:01.563Z,10.30
2022-10-05T05:42:42.391Z,10.30
2022-10-05T05:45:19.832Z,10.30
2022-10-05T05:47:54.172Z,10.30
2022-10-05T05:50:34.631Z,10.30
2022-10-05T05:53:12.797Z,10.40
2022-10-05T05:55:45.577Z,10.40
2022-10-05T05:58:23.047Z,10.40
2022-10-05T06:00:58.196Z,10.40
2022-10-05T06:03:33.967Z,10.40
2022-10-05T06:06:06.926Z,10.40
2022-10-05T06:08:42.169Z,10.48
2022-10-05T06:11:23.442Z,10.52
2022-10-05T06:13:53.132Z,10.68
2022-10-05T06:16:25.269Z,10.80
2022-10-05T06:18:58.042Z,10.90
2022-10-05T06:21:34.299Z,11.10
2022-10-05T06:24:11.441Z,11.20
2022-10-05T06:27:14.011Z,11.40
2022-10-05T06:29:58.784Z,11.60
2022-10-05T06:32:31.234Z,11.70
2022-10-05T06:35:09.444Z,11.82
2022-10-05T06:37:49.662Z,12.00
2022-10-05T06:40:31.597Z,12.10
2022-10-05T06:43:18.769Z,12.30
2022-10-05T06:46:20.703Z,12.56
2022-10-05T06:49:21.399Z,12.80
2022-10-05T06:52:21.689Z,13.00
2022-10-05T06:55:00.707Z,13.10
2022-10-05T06:57:54.083Z,13.20
2022-10-05T07:00:25.125Z,13.40
2022-10-05T07:03:02.465Z,13.60
2022-10-05T07:05:59.680Z,13.78
2022-10-05T07:08:42.830Z,13.90
2022-10-05T07:11:25.138Z,14.02
2022-10-05T07:14:16.827Z,14.16
2022-10-05T07:17:00.816Z,14.30
2022-10-05T07:19:39.349Z,14.40
2022-10-05T07:22:33.471Z,14.56
2022-10-05T07:25:10.810Z,14.70
2022-10-05T07:27:47.120Z,14.80
2022-10-05T07:30:18.755Z,14.90
2022-10-05T07:32:56.432Z,15.00
2022-10-05T07:35:56.678Z,15.02
2022-10-05T07:38:32.287Z,15.10
2022-10-05T07:41:06.795Z,15.20
2022-10-05T07:46:50.068Z,15.50
2022-10-05T07:49:26.507Z,15.60
2022-10-05T07:52:00.170Z,15.70
2022-10-05T07:54:47.328Z,15.80
2022-10-05T07:57:24.847Z,15.86
2022-10-05T08:00:00.615Z,15.98
2022-10-05T08:23:38.161Z,17.40
2022-10-05T08:26:16.071Z,17.60
2022-10-05T08:28:54.037Z,17.60
2022-10-05T08:31:25.480Z,17.60
2022-10-05T08:34:10.223Z,17.72
2022-10-05T08:36:54.079Z,17.92
2022-10-05T08:39:26.228Z,18.18
2022-10-05T08:42:29.958Z,18.40
2022-10-05T08:45:23.605Z,18.60
2022-10-05T08:48:38.486Z,18.80
2022-10-05T08:51:32.739Z,19.04
2022-10-05T08:54:25.514Z,19.28
2022-10-05T08:57:16.411Z,19.50
2022-10-05T09:00:04.418Z,19.74
2022-10-05T09:02:54.693Z,20.00
2022-10-05T09:05:51.804Z,20.30
2022-10-05T09:08:43.296Z,20.50
2022-10-05T09:11:16.425Z,20.70
2022-10-05T09:14:02.708Z,20.80
2022-10-05T09:17:00.272Z,20.90
2022-10-05T09:20:00.228Z,21.00
2022-10-05T09:22:43.507Z,21.14
2022-10-05T09:25:20.783Z,21.30
2022-10-05T09:27:55.704Z,21.30
2022-10-05T09:30:40.300Z,21.40
2022-10-05T09:33:54.466Z,21.40
2022-10-05T09:36:56.785Z,21.50
2022-10-05T09:39:37.221Z,21.60
2022-10-05T09:42:44.534Z,21.60
2022-10-05T09:45:40.460Z,21.70
2022-10-05T09:49:07.865Z,21.80
2022-10-05T09:52:13.942Z,21.90
2022-10-05T09:55:30.714Z,21.90
2022-10-05T09:58:36.343Z,22.00
2022-10-05T10:01:33.109Z,22.10
2022-10-05T10:04:29.821Z,22.20
2022-10-05T10:07:35.968Z,22.30
2022-10-05T10:10:33.336Z,22.30
2022-10-05T10:13:29.978Z,22.40
2022-10-05T10:16:10.598Z,22.40
2022-10-05T10:19:11.965Z,22.50
2022-10-05T10:22:28.377Z,22.50
2022-10-05T10:25:26.441Z,22.60
2022-10-05T10:28:28.381Z,22.70
2022-10-05T10:31:17.155Z,22.80
2022-10-05T10:34:20.369Z,22.90
2022-10-05T10:37:10.622Z,23.00
2022-10-05T10:39:59.359Z,23.20
2022-10-05T10:42:39.559Z,23.30
2022-10-05T10:45:32.953Z,23.30
2022-10-05T10:48:04.739Z,23.38
2022-10-05T10:51:14.656Z,23.40
2022-10-05T10:54:17.416Z,23.46
2022-10-05T10:57:00.690Z,23.50
2022-10-05T10:59:55.829Z,23.50
2022-10-05T11:02:57.776Z,23.72
2022-10-05T11:06:03.599Z,24.00
2022-10-05T11:09:01.070Z,24.22
2022-10-05T11:11:51.328Z,24.44
2022-10-05T11:14:40.402Z,24.60
2022-10-05T11:17:31.025Z,24.70
2022-10-05T11:20:21.057Z,24.80
2022-10-05T11:23:09.873Z,24.70
2022-10-05T11:26:02.015Z,24.60
2022-10-05T11:28:51.772Z,24.58
2022-10-05T11:31:49.432Z,24.70
2022-10-05T11:34:44.643Z,24.74
2022-10-05T11:37:35.672Z,25.06
2022-10-05T11:40:47.646Z,25.34
2022-10-05T11:43:41.397Z,25.60
2022-10-05T11:46:16.987Z,25.80
2022-10-05T11:48:59.793Z,26.16
2022-10-05T11:51:40.138Z,27.50
2022-10-05T11:54:22.565Z,29.40
2022-10-05T11:56:56.527Z,30.96
2022-10-05T11:59:33.941Z,32.54
2022-10-05T12:02:18.139Z,33.86
2022-10-05T12:04:55.846Z,34.76
2022-10-05T12:07:35.711Z,35.38
2022-10-05T12:10:22.363Z,36.48
2022-10-05T12:13:10.701Z,37.66
2022-10-05T12:15:47.463Z,37.84
2022-10-05T12:18:23.147Z,36.88
2022-10-05T12:20:58.759Z,36.40
2022-10-05T12:23:34.432Z,36.46
2022-10-05T12:26:05.633Z,35.70
2022-10-05T12:28:37.905Z,35.14
2022-10-05T12:31:17.559Z,34.50
2022-10-05T12:33:55.947Z,35.20
2022-10-05T12:36:46.318Z,35.12
2022-10-05T12:39:26.681Z,36.20
2022-10-05T12:42:06.449Z,37.12
2022-10-05T12:44:56.278Z,38.40
2022-10-05T12:47:33.492Z,39.58
2022-10-05T12:50:15.835Z,41.02
2022-10-05T12:52:59.698Z,41.98
2022-10-05T12:55:39.505Z,42.04
2022-10-05T12:58:20.889Z,42.76
2022-10-05T13:00:56.778Z,43.48
2022-10-05T13:03:30.471Z,43.90
2022-10-05T13:06:15.265Z,44.18
2022-10-05T13:08:52.802Z,44.04
2022-10-05T13:26:10.378Z,44.52
2022-10-05T13:28:47.772Z,45.10
2022-10-05T13:31:29.113Z,45.30
2022-10-05T13:34:15.545Z,45.36
2022-10-05T13:36:55.828Z,43.96
2022-10-05T13:39:39.378Z,41.98
2022-10-05T13:42:16.033Z,40.14
2022-10-05T13:44:54.383Z,38.66
2022-10-05T13:47:35.464Z,37.42
2022-10-05T13:50:33.605Z,36.02
2022-10-05T13:53:29.609Z,34.40
2022-10-05T13:56:08.330Z,33.30
2022-10-05T14:02:21.036Z,31.82
2022-10-05T14:05:00.424Z,31.04
2022-10-05T14:07:38.975Z,30.44
2022-10-05T14:10:18.474Z,29.96
2022-10-05T14:12:56.858Z,29.50
2022-10-05T14:15:42.206Z,29.10
2022-10-05T14:18:28.658Z,28.90
2022-10-05T14:21:17.411Z,28.60
2022-10-05T14:23:49.967Z,29.30
2022-10-05T14:26:41.297Z,31.32
2022-10-05T14:29:25.022Z,32.44
2022-10-05T14:32:05.262Z,32.30
2022-10-05T14:34:45.199Z,32.54
2022-10-05T14:40:35.696Z,32.34
2022-10-05T14:43:23.243Z,31.80
2022-10-05T14:46:01.395Z,31.06
2022-10-05T14:48:42.795Z,30.36
2022-10-05T14:51:28.312Z,29.76
2022-10-05T14:54:01.747Z,29.70
2022-10-05T14:56:50.644Z,29.60
2022-10-05T14:59:51.476Z,29.12
2022-10-05T15:02:52.656Z,28.80
2022-10-05T15:05:32.708Z,28.90
2022-10-05T15:08:15.757Z,28.92
2022-10-05T15:10:52.320Z,28.66
2022-10-05T15:13:28.903Z,28.12
2022-10-05T15:16:06.660Z,27.54
2022-10-05T15:18:49.153Z,27.08
2022-10-05T15:21:42.807Z,26.56
2022-10-05T15:47:23.490Z,23.86
2022-10-05T15:50:03.644Z,23.68
2022-10-05T15:52:44.121Z,23.30
2022-10-05T15:55:36.293Z,23.02
2022-10-05T15:58:28.880Z,22.80
2022-10-05T16:01:08.550Z,22.46
2022-10-05T16:03:52.269Z,22.20
2022-10-05T16:06:56.762Z,21.90
2022-10-05T16:09:50.418Z,21.50
2022-10-05T16:12:48.502Z,21.16
2022-10-05T16:15:29.623Z,20.80
2022-10-05T16:18:37.522Z,20.50
2022-10-05T16:21:18.906Z,20.10
2022-10-05T16:24:10.717Z,19.80
2022-10-05T16:26:56.680Z,19.50
2022-10-05T16:29:40.371Z,19.24
2022-10-05T16:32:17.863Z,19.00
2022-10-05T16:35:08.830Z,18.80
2022-10-05T16:37:53.204Z,18.60
2022-10-05T16:40:35.732Z,18.40
2022-10-05T16:43:21.722Z,18.20
2022-10-05T16:46:10.239Z,18.10
2022-10-05T16:48:57.599Z,18.00
2022-10-05T16:51:36.754Z,17.90
2022-10-05T16:54:19.615Z,17.80
2022-10-05T16:56:55.695Z,17.60
2022-10-05T16:59:49.331Z,17.40
2022-10-05T17:02:35.848Z,17.20
2022-10-05T17:05:24.266Z,17.10
2022-10-05T17:08:09.676Z,17.00
2022-10-05T17:11:01.514Z,16.90
2022-10-05T17:14:02.196Z,16.80
2022-10-05T17:16:55.056Z,16.70
2022-10-05T17:19:42.810Z,16.60
2022-10-05T17:22:26.239Z,16.54
2022-10-05T17:25:04.918Z,16.50
2022-10-05T17:27:51.219Z,16.40
2022-10-05T17:30:39.563Z,16.30
2022-10-05T17:33:22.833Z,16.20
2022-10-05T17:36:19.870Z,16.10
2022-10-05T17:39:14.215Z,16.10
2022-10-05T17:41:46.940Z,16.00
2022-10-05T17:44:28.212Z,16.00
2022-10-05T17:47:04.116Z,15.90
2022-10-05T17:50:17.132Z,15.80
2022-10-05T17:53:37.785Z,15.70
2022-10-05T17:56:09.556Z,15.66
2022-10-05T17:59:19.135Z,15.60
2022-10-05T18:02:22.438Z,15.50
2022-10-05T18:05:09.426Z,15.48
2022-10-05T18:07:49.093Z,15.40
2022-10-05T18:10:29.686Z,15.40
2022-10-05T18:13:28.167Z,15.30
2022-10-05T18:16:12.741Z,15.30
2022-10-05T18:19:16.715Z,15.30
2022-10-05T18:26:26.737Z,15.30
2022-10-05T19:13:55.918Z,14.92
2022-10-05T19:16:42.145Z,14.74
2022-10-05T19:19:44.978Z,14.54
2022-10-05T19:22:29.119Z,14.40
2022-10-05T19:25:40.144Z,14.40
2022-10-05T19:48:50.256Z,14.50
2022-10-05T19:52:14.723Z,14.50
2022-10-05T19:55:12.511Z,14.42
2022-10-05T19:58:21.250Z,14.40
2022-10-05T20:01:11.588Z,14.40
2022-10-05T20:03:53.877Z,14.40
2022-10-05T20:06:48.194Z,14.40
2022-10-05T20:09:24.969Z,14.40
2022-10-05T20:11:57.861Z,14.40
2022-10-05T20:15:03.191Z,14.40
2022-10-05T20:17:56.838Z,14.30
2022-10-05T20:20:47.170Z,14.36
2022-10-05T20:23:28.133Z,14.32
2022-10-05T20:26:18.254Z,14.28
2022-10-05T20:28:51.171Z,14.20
2022-10-05T20:31:23.966Z,14.20
2022-10-05T20:33:56.034Z,14.10
2022-10-05T20:36:27.901Z,14.10
2022-10-05T20:39:00.179Z,14.00
2022-10-05T20:41:32.494Z,13.90
2022-10-05T20:44:43.070Z,13.80
2022-10-05T20:47:24.100Z,13.80
2022-10-05T20:50:00.295Z,13.90
2022-10-05T20:56:02.798Z,14.00
2022-10-05T20:58:39.188Z,14.10
2022-10-05T21:01:18.478Z,14.10
2022-10-05T21:03:50.850Z,14.10
2022-10-05T21:06:26.438Z,14.08
2022-10-05T21:08:59.615Z,13.96
2022-10-05T21:11:32.006Z,13.90
2022-10-05T21:14:06.800Z,13.80
2022-10-05T21:16:45.921Z,13.70
2022-10-05T21:19:18.399Z,13.70
2022-10-05T21:21:50.465Z,13.70
2022-10-05T21:24:22.382Z,13.70
2022-10-05T21:26:57.778Z,13.70
2022-10-05T21:29:31.756Z,13.60
2022-10-05T21:32:08.786Z,13.64
2022-10-05T21:34:43.092Z,13.60
2022-10-05T21:37:15.575Z,13.42
2022-10-05T21:39:47.568Z,13.40
2022-10-05T21:42:23.473Z,13.30
2022-10-05T21:44:57.126Z,13.30
2022-10-05T21:47:29.809Z,13.40
2022-10-05T21:50:11.776Z,13.38
2022-10-05T21:52:44.608Z,13.30
2022-10-05T21:55:17.278Z,13.30
2022-10-05T21:57:53.420Z,13.30
2022-10-05T22:00:26.779Z,13.30
2022-10-05T22:02:58.754Z,13.22
2022-10-05T22:05:30.670Z,13.10
2022-10-05T22:08:02.774Z,12.90
2022-10-05T22:10:37.265Z,12.80
2022-10-05T22:13:09.796Z,12.70
2022-10-05T22:15:41.986Z,12.60
2022-10-05T22:18:17.543Z,12.60
2022-10-05T22:20:49.627Z,12.50
2022-10-05T22:23:21.588Z,12.40
2022-10-05T22:25:54.236Z,12.30
2022-10-05T22:28:26.780Z,12.30
2022-10-05T22:31:01.044Z,12.20
2022-10-05T22:33:33.177Z,12.10
2022-10-05T22:36:06.880Z,12.00
2022-10-05T22:38:40.339Z,12.00
2022-10-05T22:41:15.439Z,11.90
2022-10-05T22:43:50.889Z,11.90
2022-10-05T22:46:22.993Z,11.80
2022-10-05T22:48:55.641Z,11.80
2022-10-05T22:51:30.561Z,11.70
2022-10-05T22:54:02.807Z,11.70
2022-10-05T22:56:35.407Z,11.70
2022-10-05T22:59:07.359Z,11.70
2022-10-05T23:01:39.454Z,11.70
2022-10-05T23:04:12.147Z,11.70
2022-10-05T23:06:46.925Z,11.70
2022-10-05T23:09:19.147Z,11.70
2022-10-05T23:11:54.050Z,11.70
2022-10-05T23:14:26.048Z,11.80
2022-10-05T23:16:58.122Z,11.98
2022-10-05T23:19:32.721Z,12.00
2022-10-05T23:22:05.278Z,12.00
2022-10-05T23:24:37.178Z,12.10
2022-10-05T23:27:09.037Z,12.10
2022-10-05T23:29:40.932Z,12.10
2022-10-05T23:32:13.170Z,12.10
2022-10-05T23:34:45.155Z,12.10
2022-10-05T23:37:19.228Z,12.10
2022-10-05T23:39:53.878Z,12.00
2022-10-05T23:42:26.102Z,11.90
2022-10-05T23:44:57.969Z,11.90
2022-10-05T23:47:30.236Z,11.90
2022-10-05T23:50:02.127Z,11.82
2022-10-05T23:52:34.159Z,11.80
2022-10-05T23:55:06.683Z,11.76
2022-10-05T23:57:39.617Z,11.80
